This is the latest recevied weather packets stored in our database for station/object W1SGB. If no packets are shown the sender has not sent any weather packets the latest 10 day(s).
| Time | Temp. | Humidity | Pressure | Rain* | Wind** | Luminosity | Snow |
|---|---|---|---|---|---|---|---|
| 1778204418 | 10° C | 50% | 1008.9 hPa | 0 mm | - | 0 W/m² | - |
| 1778199617 | 12.22° C | 42% | 1007.6 hPa | 0 mm | - | 0 W/m² | - |
| 1778194218 | 14.44° C | 39% | 1007 hPa | 0 mm | - | 35 W/m² | - |
| 1778193619 | 15° C | 39% | 1006.9 hPa | 0 mm | - | 40 W/m² | - |
| 1778192419 | 16.11° C | 38% | 1006.7 hPa | 0 mm | - | 157 W/m² | - |
| 1778191219 | 16.11° C | 37% | 1006.7 hPa | 0 mm | - | 244 W/m² | - |
| 1778189420 | 16.67° C | 36% | 1006.3 hPa | 0 mm | - | 345 W/m² | - |
| 1778188819 | 16.67° C | 37% | 1006.2 hPa | 0 mm | - | 377 W/m² | - |
| 1778184618 | 16.67° C | 37% | 1006.1 hPa | 0 mm | - | 621 W/m² | - |
| 1778182818 | 17.22° C | 35% | 1006.4 hPa | 0 mm | - | 706 W/m² | - |
| 1778180419 | 16.67° C | 38% | 1006.7 hPa | 0 mm | - | 813 W/m² | - |
| 1778178617 | 16.11° C | 36% | 1006.9 hPa | 0 mm | - | 876 W/m² | - |
| 1778170819 | 14.44° C | 43% | 1008 hPa | 0 mm | - | 333 W/m² | - |
| 1778167820 | 13.89° C | 55% | 1008.5 hPa | 0 mm | - | 782 W/m² | - |
| 1778167240 | 13.33° C | 55% | 1008.5 hPa | 0 mm | - | 694 W/m² | - |
| 1778163641 | 12.22° C | 65% | 1008.7 hPa | 0 mm | - | 448 W/m² | - |
| 1778163027 | 12.22° C | 69% | 1008.7 hPa | 0 mm | - | 552 W/m² | - |
| 1778157628 | 9.44° C | 93% | 1008.5 hPa | 0 mm | - | 102 W/m² | - |
| 1778156428 | 8.89° C | 95% | 1008.5 hPa | 0 mm | - | 44 W/m² | - |
| 1778155829 | 8.89° C | 95% | 1008.6 hPa | 0 mm | - | 89 W/m² | - |
| 1778152830 | 8.89° C | 96% | 1008.3 hPa | 0.25 mm | - | 28 W/m² | - |
| 1778147431 | 8.89° C | 95% | 1007.9 hPa | 1.52 mm | - | 1 W/m² | - |
| 1778143252 | 9.44° C | 95% | 1007.4 hPa | 3.05 mm | - | 0 W/m² | - |
| 1778140218 | 10° C | 94% | 1007.8 hPa | 2.54 mm | - | 0 W/m² | - |
| 1778137819 | 11.11° C | 87% | 1007 hPa | 0.51 mm | - | 0 W/m² | - |
* Rain latest hour (hover to see other rain measurements)
** Current wind speed in m/s (hover to see current wind gust speed)